Newville, PA (17241)

3:55 PM EDT on March 27, 2017 (GMT -0400)
South of Newville | | Change Station

Elev 653 ft 40.12 °N, 77.37 °W | Updated 1 minute ago

Partly Cloudy
Partly Cloudy
62.1 °F
Feels Like 62.1 °F
N
2.7
Wind Variable Wind from ESE

Today
High -- | Low -- °F
--% Chance of Precip.
Yesterday
High -- | Low -- °F
Precip. -- in
Pressure 29.99 in
Visibility 7.0 miles
Clouds Overcast 1000 ft
Dew Point 55 °F
Humidity 77%
Rainfall 0.20 in
Snow Depth Not available.
7:01 AM 7:29 PM
Waning Crescent, 0% visible
SPECI KCXY 271942Z 13004KT 7SM OVC010 12/08 A2999 RMK AO2 T01220083
Pressure 29.99 in
Visibility 7.0 miles
Clouds Overcast 1000 ft
Dew Point 55 °F
Humidity 77%
Rainfall 0.20 in
Snow Depth Not available.
7:01 AM 7:29 PM
Waning Crescent, 0% visible
SPECI KCXY 271942Z 13004KT 7SM OVC010 12/08 A2999 RMK AO2 T01220083

Get Severe Weather Alerts

Thanks for signing up!

Be on the lookout for a verification email in your inbox.

You'll start receiving the daily forecast at 8 AM.

×

10-Day Weather Forecast

Almanac

Astronomy

Mar. 27, 2017 Rise Set
Actual Time
Civil Twilight
Nautical Twilight
Astronomical Twilight
Moon
Length of Visible Light
Length of Day
Tomorrow will be .
, % of the Moon is Illuminated

Today's Extremes

State Highs State Lows

Community

WunderPhotos

Upload Photos

1,962,540 photos uploaded!

WunderBlog® & News

Nearby

Air Quality

  Air Quality AQ Index Pollutant
Not available.

Snow Depth

Station Depth Elevation

Earthquake Activity

City Distance Mag. Time & Date
Minimum magnitude displayed is 2.5.

Earthquake Activity

City Distance Mag. Time & Date
Minimum magnitude displayed is 2.5.

Coastal Water Temperatures

Place Temperature

Stations

Nearby Weather Stations

Station Location Temp. Windchill Dew Point Humidity Wind Precip. Elev Updated Type
                   

Watches & Warnings

There are currently no watches in effect.